Time;durP1;ratioP1;P1;durP2;ratioP2;P2;SDS_P1;SDS_P2;PMS_P1;PMS_P2;Temp;Humidity;BMP_temperature;BMP_pressure;BME280_temperature;BME280_humidity;BME280_pressure;Samples;Min_cycle;Max_cycle;Signal;HPM_P1;HPM_P2
2022/03/28 00:03:22;;;;;;;;;;;;;;;;;;8482724;28;20051;-81
2022/03/28 00:07:24;;;;;;;14.07;5.93;;;;;;;;;;8497094;28;19919;-79
2022/03/28 00:11:28;;;;;;;;;;;;;;;;;;8497080;28;20043;-80
2022/03/28 00:15:31;;;;;;;22.60;7.28;;;;;;;;;;8496804;28;20274;-81
2022/03/28 00:19:33;;;;;;;14.65;6.38;;;;;;;;;;8496832;28;20058;-82
2022/03/28 00:23:36;;;;;;;15.88;6.28;;;;;;;;;;8494150;28;20062;-79
2022/03/28 00:27:40;;;;;;;15.70;7.47;;;;;;;;;;8480722;28;20052;-81
2022/03/28 00:31:43;;;;;;;16.77;6.82;;;;;;;;;;8488326;28;20048;-83
2022/03/28 00:35:45;;;;;;;13.18;5.55;;;;;;;;;;8483467;28;20050;-82
2022/03/28 00:39:48;;;;;;;16.15;5.63;;;;;;;;;;8489863;27;20047;-81
2022/03/28 00:43:57;;;;;;;13.40;5.70;;;;;;;;;;8490918;27;20475;-82
2022/03/28 00:48:01;;;;;;;15.07;6.03;;;;;;;;;;8488996;27;20050;-80
2022/03/28 00:52:04;;;;;;;14.02;5.60;;;;;;;;;;8502580;27;20463;-81
2022/03/28 00:56:07;;;;;;;15.80;6.45;;;;;;;;;;8469035;27;20048;-81
2022/03/28 01:00:12;;;;;;;15.38;6.20;;;;;;;;;;8469161;27;20585;-81
2022/03/28 01:04:15;;;;;;;12.52;6.03;;;;;;;;;;8474314;27;20039;-79
2022/03/28 01:08:18;;;;;;;13.52;5.72;;;;;;;;;;8501404;27;20047;-86
2022/03/28 01:12:22;;;;;;;14.10;4.85;;;;;;;;;;8501227;27;20053;-81
2022/03/28 01:16:29;;;;;;;17.13;6.28;;;;;;;;;;8500983;27;20044;-80
2022/03/28 01:20:34;;;;;;;18.95;5.85;;;;;;;;;;8500885;27;20043;-79
2022/03/28 01:24:40;;;;;;;13.38;4.68;;;;;;;;;;8501253;27;20051;-81
2022/03/28 01:28:42;;;;;;;20.23;6.60;;;;;;;;;;8501343;27;20047;-81
2022/03/28 01:32:46;;;;;;;13.73;5.82;;;;;;;;;;8490715;27;20055;-81
2022/03/28 01:36:49;;;;;;;14.35;6.60;;;;;;;;;;8490343;27;20178;-79
2022/03/28 01:40:54;;;;;;;15.40;6.28;;;;;;;;;;8472056;27;20043;-82
2022/03/28 01:44:57;;;;;;;15.57;6.18;;;;;;;;;;8468050;27;20043;-81
2022/03/28 01:49:00;;;;;;;14.30;5.78;;;;;;;;;;8495869;27;20092;-82
2022/03/28 01:53:03;;;;;;;12.15;5.35;;;;;;;;;;8500254;27;20039;-79
2022/03/28 01:57:11;;;;;;;14.55;5.93;;;;;;;;;;8492989;27;20051;-79
2022/03/28 02:01:13;;;;;;;18.35;6.25;;;;;;;;;;8468165;27;20048;-81
2022/03/28 02:05:16;;;;;;;;;;;;;;;;;;8493340;27;20044;-79
2022/03/28 02:09:18;;;;;;;14.18;5.47;;;;;;;;;;8476909;27;19923;-79
2022/03/28 02:13:22;;;;;;;;;;;;;;;;;;8467696;27;20060;-79
2022/03/28 02:17:24;;;;;;;14.15;5.28;;;;;;;;;;8473419;27;19927;-79
2022/03/28 02:21:26;;;;;;;;;;;;;;;;;;8485252;27;20122;-79
2022/03/28 02:25:29;;;;;;;20.77;7.80;;;;;;;;;;8468501;27;20370;-81
2022/03/28 02:29:33;;;;;;;12.98;6.03;;;;;;;;;;8496812;27;20047;-86
2022/03/28 02:33:36;;;;;;;16.90;6.28;;;;;;;;;;8495420;27;20062;-81
2022/03/28 02:37:39;;;;;;;14.77;5.75;;;;;;;;;;8466423;27;20056;-81
2022/03/28 02:41:42;;;;;;;16.52;6.50;;;;;;;;;;8465943;27;20172;-80
2022/03/28 02:45:46;;;;;;;14.82;5.15;;;;;;;;;;8465846;27;20471;-80
2022/03/28 02:49:49;;;;;;;14.93;5.38;;;;;;;;;;8465701;27;20079;-80
2022/03/28 02:53:51;;;;;;;18.42;6.45;;;;;;;;;;8465461;28;20047;-80
2022/03/28 02:57:54;;;;;;;13.60;6.03;;;;;;;;;;8465919;27;20051;-80
2022/03/28 03:01:58;;;;;;;14.98;6.72;;;;;;;;;;8465449;27;20052;-80
2022/03/28 03:06:00;;;;;;;15.98;6.40;;;;;;;;;;8465067;28;20051;-80
2022/03/28 03:10:03;;;;;;;;;;;;;;;;;;8465495;27;20051;-82
2022/03/28 03:14:05;;;;;;;;;;;;;;;;;;8497311;27;19926;-80
2022/03/28 03:18:09;;;;;;;14.55;5.30;;;;;;;;;;8497402;27;20344;-80
2022/03/28 03:22:14;;;;;;;18.27;7.18;;;;;;;;;;8497272;27;20043;-81
2022/03/28 03:26:16;;;;;;;16.67;6.90;;;;;;;;;;8466980;27;20536;-80
2022/03/28 03:30:20;;;;;;;16.08;6.85;;;;;;;;;;8494371;27;20051;-80
2022/03/28 03:34:24;;;;;;;21.13;6.45;;;;;;;;;;8496696;27;20056;-81
2022/03/28 03:38:27;;;;;;;19.63;6.40;;;;;;;;;;8496772;28;20069;-80
2022/03/28 03:42:30;;;;;;;20.17;6.95;;;;;;;;;;8496833;28;20051;-80
2022/03/28 03:46:32;;;;;;;18.92;7.57;;;;;;;;;;8496848;28;20448;-80
2022/03/28 03:50:36;;;;;;;30.25;13.98;;;;;;;;;;8496708;28;20130;-80
2022/03/28 03:54:39;;;;;;;19.75;7.38;;;;;;;;;;8483391;28;20054;-78
2022/03/28 03:58:41;;;;;;;23.95;6.78;;;;;;;;;;8490544;28;20096;-79
2022/03/28 04:02:45;;;;;;;21.17;6.28;;;;;;;;;;8463821;28;20059;-83
2022/03/28 04:06:49;;;;;;;23.10;6.72;;;;;;;;;;8464027;28;20064;-79
2022/03/28 04:10:51;;;;;;;23.75;9.40;;;;;;;;;;8468309;28;20054;-83
2022/03/28 04:14:58;;;;;;;27.75;11.15;;;;;;;;;;8466408;28;20055;-80
2022/03/28 04:19:01;;;;;;;29.80;11.57;;;;;;;;;;8470512;27;20047;-80
2022/03/28 04:23:05;;;;;;;20.75;8.32;;;;;;;;;;8470159;27;20126;-81
2022/03/28 04:27:07;;;;;;;77.82;28.48;;;;;;;;;;8475266;27;20066;-80
2022/03/28 04:31:11;;;;;;;39.63;15.60;;;;;;;;;;8469845;27;20055;-80
2022/03/28 04:35:14;;;;;;;27.52;10.98;;;;;;;;;;8469823;27;20043;-81
2022/03/28 04:39:18;;;;;;;33.10;12.32;;;;;;;;;;8470079;27;20395;-83
2022/03/28 04:43:21;;;;;;;31.48;13.00;;;;;;;;;;8469558;27;20406;-81
2022/03/28 04:47:23;;;;;;;23.85;9.40;;;;;;;;;;8469541;27;20051;-82
2022/03/28 04:51:26;;;;;;;22.92;9.52;;;;;;;;;;8469571;27;20051;-79
2022/03/28 04:55:30;;;;;;;30.38;10.30;;;;;;;;;;8484024;27;20118;-83
2022/03/28 04:59:33;;;;;;;25.27;8.80;;;;;;;;;;8502429;27;20126;-84
2022/03/28 05:03:35;;;;;;;20.55;8.65;;;;;;;;;;8475840;27;20043;-81
2022/03/28 05:07:38;;;;;;;24.02;9.25;;;;;;;;;;8501380;27;20601;-81
2022/03/28 05:11:42;;;;;;;22.98;10.10;;;;;;;;;;8489935;27;20448;-80
2022/03/28 05:15:45;;;;;;;21.17;8.43;;;;;;;;;;8468371;27;20051;-80
2022/03/28 05:19:48;;;;;;;24.50;9.00;;;;;;;;;;8468289;27;20122;-80
2022/03/28 05:23:50;;;;;;;22.23;9.85;;;;;;;;;;8477299;27;20073;-78
2022/03/28 05:27:55;;;;;;;19.20;8.95;;;;;;;;;;8475706;27;20082;-79
2022/03/28 05:32:03;;;;;;;21.50;8.93;;;;;;;;;;8468172;27;20430;-79
2022/03/28 05:36:06;;;;;;;18.55;7.80;;;;;;;;;;8488186;27;20499;-80
2022/03/28 05:40:11;;;;;;;20.25;9.13;;;;;;;;;;8468512;27;20046;-79
2022/03/28 05:44:15;;;;;;;20.80;8.35;;;;;;;;;;8485808;27;20039;-80
2022/03/28 05:48:19;;;;;;;21.77;8.38;;;;;;;;;;8466807;27;20056;-80
2022/03/28 05:52:27;;;;;;;21.95;8.80;;;;;;;;;;8467490;27;20444;-78
2022/03/28 05:56:32;;;;;;;19.58;8.43;;;;;;;;;;8481777;27;20093;-79
2022/03/28 06:00:37;;;;;;;18.95;8.27;;;;;;;;;;8484896;27;20043;-80
2022/03/28 06:04:40;;;;;;;20.48;8.68;;;;;;;;;;8473381;27;20055;-80
2022/03/28 06:08:42;;;;;;;22.88;9.73;;;;;;;;;;8464573;27;20692;-80
2022/03/28 06:12:45;;;;;;;22.58;8.68;;;;;;;;;;8465646;27;20135;-79
2022/03/28 06:16:49;;;;;;;24.00;9.25;;;;;;;;;;8492797;27;20098;-81
2022/03/28 06:20:52;;;;;;;20.42;8.45;;;;;;;;;;8466209;27;20044;-85
2022/03/28 06:24:55;;;;;;;27.13;9.88;;;;;;;;;;8478746;27;20063;-81
2022/03/28 06:28:58;;;;;;;20.25;8.85;;;;;;;;;;8466688;28;20163;-80
2022/03/28 06:33:02;;;;;;;22.30;8.70;;;;;;;;;;8465657;27;20052;-80
2022/03/28 06:37:05;;;;;;;19.58;8.52;;;;;;;;;;8464912;27;20058;-79
2022/03/28 06:41:08;;;;;;;22.85;9.15;;;;;;;;;;8465902;27;20048;-78
2022/03/28 06:45:12;;;;;;;21.13;8.50;;;;;;;;;;8471154;27;20046;-80
2022/03/28 06:49:16;;;;;;;19.33;9.23;;;;;;;;;;8480012;27;20054;-81
2022/03/28 06:53:19;;;;;;;18.27;8.55;;;;;;;;;;8476383;27;20051;-81
2022/03/28 06:57:22;;;;;;;20.80;8.05;;;;;;;;;;8463302;27;20400;-80
2022/03/28 07:01:25;;;;;;;17.92;8.38;;;;;;;;;;8464628;27;20535;-80
2022/03/28 07:05:29;;;;;;;17.85;8.45;;;;;;;;;;8464797;27;20107;-80
2022/03/28 07:09:32;;;;;;;18.90;8.20;;;;;;;;;;8464971;27;20402;-80
2022/03/28 07:13:35;;;;;;;18.73;8.70;;;;;;;;;;8465856;27;20096;-80
2022/03/28 07:17:48;;;;;;;15.38;8.30;;;;;;;;;;8465540;28;20118;-80
2022/03/28 07:21:52;;;;;;;21.00;8.93;;;;;;;;;;8492471;27;20047;-80
2022/03/28 07:25:56;;;;;;;18.40;8.18;;;;;;;;;;8497947;27;20039;-80
2022/03/28 07:29:58;;;;;;;18.02;9.18;;;;;;;;;;8497924;27;20054;-80
2022/03/28 07:38:19;;;;;;;18.95;8.15;;;;;;;;;;8496870;28;20058;-80
2022/03/28 07:42:22;;;;;;;18.45;7.53;;;;;;;;;;8497136;28;20471;-80
2022/03/28 07:46:24;;;;;;;18.23;7.78;;;;;;;;;;8498256;28;20062;-80
2022/03/28 07:50:27;;;;;;;16.30;7.13;;;;;;;;;;8470701;28;20044;-83
2022/03/28 07:54:32;;;;;;;12.23;6.10;;;;;;;;;;8474446;27;20418;-84
2022/03/28 07:58:35;;;;;;;12.77;7.43;;;;;;;;;;8477245;27;20040;-79
2022/03/28 08:02:38;;;;;;;11.25;6.18;;;;;;;;;;8475457;27;20043;-80
2022/03/28 08:06:41;;;;;;;14.00;6.47;;;;;;;;;;8476285;28;20044;-80
2022/03/28 08:10:45;;;;;;;11.45;5.97;;;;;;;;;;8475680;27;20043;-79
2022/03/28 08:14:49;;;;;;;11.15;6.15;;;;;;;;;;8478047;27;20054;-79
2022/03/28 08:18:51;;;;;;;13.10;6.88;;;;;;;;;;8478891;27;20052;-88
2022/03/28 08:22:54;;;;;;;16.33;6.18;;;;;;;;;;8477732;27;20048;-79
2022/03/28 08:26:58;;;;;;;12.48;6.28;;;;;;;;;;8477730;27;20052;-80
2022/03/28 08:31:01;;;;;;;12.48;6.50;;;;;;;;;;8477076;27;20415;-82
2022/03/28 08:35:05;;;;;;;14.80;6.72;;;;;;;;;;8478840;27;20075;-79
2022/03/28 08:39:09;;;;;;;11.85;7.45;;;;;;;;;;8476368;27;20479;-80
2022/03/28 08:43:18;;;;;;;13.23;7.55;;;;;;;;;;8477277;27;20043;-81
2022/03/28 08:47:23;;;;;;;12.75;6.50;;;;;;;;;;8476627;28;20047;-88
2022/03/28 08:51:27;;;;;;;13.70;6.93;;;;;;;;;;8476408;27;20100;-83
2022/03/28 08:55:30;;;;;;;13.35;6.28;;;;;;;;;;8477473;27;20043;-87
2022/03/28 08:59:34;;;;;;;11.63;6.70;;;;;;;;;;8476502;27;20051;-91
2022/03/28 09:03:38;;;;;;;12.48;6.63;;;;;;;;;;8501310;27;20121;-84
2022/03/28 09:07:42;;;;;;;12.13;6.10;;;;;;;;;;8507682;27;20497;-80
2022/03/28 09:11:46;;;;;;;11.00;5.95;;;;;;;;;;8510138;27;20122;-81
2022/03/28 09:15:55;;;;;;;11.13;6.05;;;;;;;;;;8508465;27;20035;-87
2022/03/28 09:20:01;;;;;;;11.98;6.45;;;;;;;;;;8504753;27;20467;-85
2022/03/28 09:24:09;;;;;;;12.65;6.63;;;;;;;;;;8507994;27;20103;-86
2022/03/28 09:28:12;;;;;;;10.93;6.05;;;;;;;;;;8507134;27;20113;-87
2022/03/28 09:32:23;;;;;;;8.73;5.25;;;;;;;;;;8505988;27;20554;-81
2022/03/28 09:36:36;;;;;;;11.88;5.53;;;;;;;;;;8504336;27;20421;-80
2022/03/28 09:40:40;;;;;;;15.00;5.60;;;;;;;;;;8469023;27;20051;-79
2022/03/28 09:44:46;;;;;;;19.35;5.60;;;;;;;;;;8497827;27;20043;-80
2022/03/28 09:48:50;;;;;;;9.32;4.85;;;;;;;;;;8474385;27;20047;-81
2022/03/28 09:52:53;;;;;;;10.75;5.05;;;;;;;;;;8488093;27;20682;-80
2022/03/28 09:57:10;;;;;;;9.32;4.15;;;;;;;;;;8482599;27;20047;-80
2022/03/28 10:01:18;;;;;;;9.07;4.72;;;;;;;;;;8480219;27;20479;-81
2022/03/28 10:05:22;;;;;;;9.13;4.55;;;;;;;;;;8612800;22;20536;-82
2022/03/28 10:09:25;;;;;;;11.60;5.10;;;;;;;;;;8326988;28;20124;-80
2022/03/28 10:13:29;;;;;;;9.35;4.97;;;;;;;;;;8298373;28;20062;-82
2022/03/28 10:17:33;;;;;;;8.00;4.28;;;;;;;;;;8301126;28;20129;-82
2022/03/28 10:21:38;;;;;;;8.68;4.40;;;;;;;;;;8319157;28;20050;-80
2022/03/28 10:25:42;;;;;;;8.45;4.60;;;;;;;;;;8364632;28;20508;-84
2022/03/28 10:29:46;;;;;;;8.60;4.72;;;;;;;;;;8366413;28;20068;-80
2022/03/28 10:33:51;;;;;;;8.43;4.40;;;;;;;;;;8334921;28;20400;-79
2022/03/28 10:38:15;;;;;;;8.32;4.28;;;;;;;;;;8332323;28;20045;-81
2022/03/28 10:42:24;;;;;;;9.38;4.57;;;;;;;;;;8333269;28;20128;-84
2022/03/28 10:46:35;;;;;;;7.93;4.30;;;;;;;;;;8329438;28;20054;-83
2022/03/28 10:50:44;;;;;;;;;;;;;;;;;;8332163;28;20095;-81
2022/03/28 10:54:53;;;;;;;8.27;4.15;;;;;;;;;;8331980;28;20376;-81
2022/03/28 10:58:59;;;;;;;9.23;4.53;;;;;;;;;;8629337;22;20049;-86
2022/03/28 11:03:03;;;;;;;8.50;4.95;;;;;;;;;;8309872;28;20041;-85
2022/03/28 11:07:07;;;;;;;8.30;5.22;;;;;;;;;;8358142;28;20045;-87
2022/03/28 11:11:22;;;;;;;6.57;3.72;;;;;;;;;;8362217;28;20488;-86
2022/03/28 11:15:25;;;;;;;9.07;4.97;;;;;;;;;;8363819;28;20074;-87
2022/03/28 11:19:30;;;;;;;10.05;4.68;;;;;;;;;;8364686;28;20583;-83
2022/03/28 11:23:39;;;;;;;12.00;4.93;;;;;;;;;;8363715;28;20136;-86
2022/03/28 11:27:43;;;;;;;9.90;4.40;;;;;;;;;;8363631;28;20041;-83
2022/03/28 11:31:46;;;;;;;10.80;4.63;;;;;;;;;;8357577;28;20046;-84
2022/03/28 11:35:57;;;;;;;6.97;4.50;;;;;;;;;;8325367;28;20090;-85
2022/03/28 11:40:02;;;;;;;6.65;3.70;;;;;;;;;;8330483;28;20080;-85
2022/03/28 11:44:07;;;;;;;11.68;4.07;;;;;;;;;;8330103;28;20416;-85
2022/03/28 11:48:09;;;;;;;8.40;3.63;;;;;;;;;;8309736;28;20045;-84
2022/03/28 11:52:12;;;;;;;6.78;3.50;;;;;;;;;;8327912;28;20049;-84
2022/03/28 11:56:25;;;;;;;7.47;3.60;;;;;;;;;;8328783;28;20071;-86
2022/03/28 12:00:29;;;;;;;7.38;3.63;;;;;;;;;;8328414;28;20060;-86
2022/03/28 12:04:32;;;;;;;9.10;4.05;;;;;;;;;;8330047;28;20448;-84
2022/03/28 12:08:35;;;;;;;7.47;3.95;;;;;;;;;;8328817;28;20092;-85
2022/03/28 12:12:39;;;;;;;6.90;3.50;;;;;;;;;;8321573;28;20060;-86
2022/03/28 12:16:51;;;;;;;10.38;4.25;;;;;;;;;;8324325;28;20052;-88
2022/03/28 12:20:56;;;;;;;7.75;3.83;;;;;;;;;;8328565;28;20050;-86
2022/03/28 12:25:01;;;;;;;6.97;3.10;;;;;;;;;;8322041;28;20042;-88
2022/03/28 12:29:05;;;;;;;5.60;3.45;;;;;;;;;;8321694;28;20041;-86
2022/03/28 12:33:16;;;;;;;8.85;4.03;;;;;;;;;;8324898;28;20080;-86
2022/03/28 12:37:19;;;;;;;7.78;4.18;;;;;;;;;;8326548;28;20499;-86
2022/03/28 12:41:22;;;;;;;7.22;4.10;;;;;;;;;;8334973;28;20374;-85
2022/03/28 12:45:29;;;;;;;6.40;3.50;;;;;;;;;;8339941;28;20385;-86
2022/03/28 12:49:46;;;;;;;5.80;3.47;;;;;;;;;;8330460;28;20049;-86
2022/03/28 12:54:12;;;;;;;6.95;3.00;;;;;;;;;;8333563;28;20052;-85
2022/03/28 12:58:21;;;;;;;8.15;3.08;;;;;;;;;;8293888;28;20401;-84
2022/03/28 13:02:40;;;;;;;5.80;3.30;;;;;;;;;;8316908;28;20050;-85
2022/03/28 13:11:29;;;;;;;7.38;3.00;;;;;;;;;;8318021;28;20108;-83
2022/03/28 13:15:53;;;;;;;4.75;2.80;;;;;;;;;;8324331;28;20045;-84
2022/03/28 13:20:25;;;;;;;5.63;3.20;;;;;;;;;;8338992;28;20095;-84
2022/03/28 13:24:51;;;;;;;7.60;3.50;;;;;;;;;;8306854;28;20046;-84
2022/03/28 13:29:27;;;;;;;5.00;2.90;;;;;;;;;;8314423;28;20042;-85
2022/03/28 13:33:42;;;;;;;7.25;3.22;;;;;;;;;;8312135;28;20481;-85
2022/03/28 13:38:07;;;;;;;5.60;2.60;;;;;;;;;;8318563;28;20064;-86
2022/03/28 13:42:22;;;;;;;6.10;3.10;;;;;;;;;;8333432;28;20054;-87
2022/03/28 13:46:39;;;;;;;6.05;2.80;;;;;;;;;;8336172;28;20128;-86
2022/03/28 13:51:01;;;;;;;7.75;3.08;;;;;;;;;;8317345;28;20066;-86
2022/03/28 13:55:32;;;;;;;6.60;2.50;;;;;;;;;;8307828;28;20060;-86
2022/03/28 14:00:06;;;;;;;7.65;3.63;;;;;;;;;;8309610;28;20468;-86
2022/03/28 14:04:24;;;;;;;7.32;3.58;;;;;;;;;;8319158;28;20157;-86
2022/03/28 14:08:48;;;;;;;6.90;3.83;;;;;;;;;;8327933;28;20049;-86
2022/03/28 14:12:53;;;;;;;8.10;4.40;;;;;;;;;;8309528;28;20048;-86
2022/03/28 14:17:15;;;;;;;11.00;4.13;;;;;;;;;;8315109;28;20144;-84
2022/03/28 14:21:37;;;;;;;8.57;4.60;;;;;;;;;;8319996;28;20507;-85
2022/03/28 14:25:45;;;;;;;7.88;3.25;;;;;;;;;;8331215;28;20076;-85
2022/03/28 14:29:49;;;;;;;7.63;3.30;;;;;;;;;;8331804;28;20068;-86
2022/03/28 14:34:19;;;;;;;6.15;3.10;;;;;;;;;;8331692;28;20240;-86
2022/03/28 14:39:08;;;;;;;7.80;3.45;;;;;;;;;;8316600;28;20140;-85
2022/03/28 14:43:30;;;;;;;9.50;4.63;;;;;;;;;;8329899;28;20049;-86
2022/03/28 14:48:01;;;;;;;7.18;3.20;;;;;;;;;;8320576;28;20055;-86
2022/03/28 14:52:34;;;;;;;6.70;4.00;;;;;;;;;;8334320;28;20049;-85
2022/03/28 14:56:44;;;;;;;6.35;3.80;;;;;;;;;;8330035;28;20477;-86
2022/03/28 15:00:47;;;;;;;7.65;3.25;;;;;;;;;;8330696;28;20049;-85
2022/03/28 15:04:50;;;;;;;7.28;3.55;;;;;;;;;;8331073;28;20049;-86
2022/03/28 15:08:55;;;;;;;7.50;3.75;;;;;;;;;;8331215;28;20111;-85
2022/03/28 15:12:58;;;;;;;10.43;5.20;;;;;;;;;;8330800;28;20132;-85
2022/03/28 15:17:04;;;;;;;10.45;6.03;;;;;;;;;;8323815;28;20103;-85
2022/03/28 15:21:07;;;;;;;8.75;5.03;;;;;;;;;;8302939;28;20080;-85
2022/03/28 15:25:14;;;;;;;8.95;4.30;;;;;;;;;;8320413;28;20045;-85
2022/03/28 15:29:18;;;;;;;10.73;5.05;;;;;;;;;;8321581;28;20099;-84
2022/03/28 15:33:22;;;;;;;7.55;3.50;;;;;;;;;;8319160;28;20049;-84
2022/03/28 15:37:26;;;;;;;15.43;5.50;;;;;;;;;;8330139;28;20046;-84
2022/03/28 15:41:35;;;;;;;12.35;4.97;;;;;;;;;;8330026;28;20046;-84
2022/03/28 15:45:39;;;;;;;7.10;2.78;;;;;;;;;;8329754;28;20045;-85
2022/03/28 15:49:43;;;;;;;5.90;2.58;;;;;;;;;;8317154;28;20095;-84
2022/03/28 15:53:50;;;;;;;7.05;3.55;;;;;;;;;;8329800;28;20049;-83
2022/03/28 15:57:56;;;;;;;10.60;4.60;;;;;;;;;;8321242;28;20141;-86
2022/03/28 16:01:59;;;;;;;5.13;2.67;;;;;;;;;;8321639;28;20069;-84
2022/03/28 16:06:03;;;;;;;5.97;2.83;;;;;;;;;;8320595;28;20041;-85
2022/03/28 16:10:08;;;;;;;4.18;2.50;;;;;;;;;;8327420;28;20053;-84
2022/03/28 16:19:45;;;;;;;8.10;4.70;;;;;;;;;;8335425;28;20064;-84
2022/03/28 16:23:50;;;;;;;9.32;3.92;;;;;;;;;;8324130;28;20057;-84
2022/03/28 16:27:54;;;;;;;4.95;2.95;;;;;;;;;;8334796;28;20467;-84
2022/03/28 16:32:01;;;;;;;7.45;4.38;;;;;;;;;;8326704;28;20064;-84
2022/03/28 16:36:09;;;;;;;13.77;8.60;;;;;;;;;;8335336;28;20049;-83
2022/03/28 16:40:13;;;;;;;16.42;8.02;;;;;;;;;;8331090;28;20041;-83
2022/03/28 16:44:17;;;;;;;14.32;6.43;;;;;;;;;;8332843;28;21151;-84
2022/03/28 16:48:20;;;;;;;12.77;6.05;;;;;;;;;;8331082;28;20047;-83
2022/03/28 16:52:25;;;;;;;16.38;7.13;;;;;;;;;;8326708;28;20041;-84
2022/03/28 16:56:27;;;;;;;16.63;7.88;;;;;;;;;;8327169;28;20461;-84
2022/03/28 17:00:31;;;;;;;19.90;10.25;;;;;;;;;;8330449;28;20057;-82
2022/03/28 17:04:34;;;;;;;22.80;11.85;;;;;;;;;;8325409;28;20049;-83
2022/03/28 17:08:44;;;;;;;35.75;17.55;;;;;;;;;;8327787;28;20061;-81
2022/03/28 17:12:48;;;;;;;25.80;13.82;;;;;;;;;;8326072;28;20141;-84
2022/03/28 17:16:51;;;;;;;35.28;20.92;;;;;;;;;;8316970;28;20069;-83
2022/03/28 17:20:56;;;;;;;25.52;15.20;;;;;;;;;;8327920;28;20132;-83
2022/03/28 17:25:02;;;;;;;31.13;18.70;;;;;;;;;;8327264;28;20083;-85
2022/03/28 17:29:05;;;;;;;19.02;9.65;;;;;;;;;;8317444;28;20405;-83
2022/03/28 17:33:09;;;;;;;22.75;12.80;;;;;;;;;;8314597;28;20053;-83
2022/03/28 17:37:12;;;;;;;41.90;22.80;;;;;;;;;;8327021;28;20075;-84
2022/03/28 17:41:17;;;;;;;22.92;13.10;;;;;;;;;;8330516;28;20053;-85
2022/03/28 17:45:20;;;;;;;78.75;41.20;;;;;;;;;;8323180;28;20061;-85
2022/03/28 17:49:24;;;;;;;58.53;31.60;;;;;;;;;;8320365;28;20485;-85
2022/03/28 17:53:41;;;;;;;47.60;25.88;;;;;;;;;;8321005;28;20053;-85
2022/03/28 17:57:46;;;;;;;23.30;11.60;;;;;;;;;;8326266;28;20041;-85
2022/03/28 18:01:53;;;;;;;20.85;11.63;;;;;;;;;;8335061;28;20052;-85
2022/03/28 18:06:00;;;;;;;79.47;44.20;;;;;;;;;;8332804;28;20135;-86
2022/03/28 18:10:04;;;;;;;16.38;9.30;;;;;;;;;;8332907;28;20571;-84
2022/03/28 18:14:09;;;;;;;16.65;9.88;;;;;;;;;;8332039;28;20053;-85
2022/03/28 18:18:21;;;;;;;14.75;8.70;;;;;;;;;;8319842;28;20042;-84
2022/03/28 18:22:31;;;;;;;42.38;21.13;;;;;;;;;;8313515;28;20046;-86
2022/03/28 18:26:38;;;;;;;53.78;21.80;;;;;;;;;;8315205;28;20100;-85
2022/03/28 18:30:46;;;;;;;31.38;13.57;;;;;;;;;;8314103;28;20049;-85
2022/03/28 18:34:50;;;;;;;39.92;17.92;;;;;;;;;;8312676;28;20042;-85
2022/03/28 18:38:53;;;;;;;35.85;17.33;;;;;;;;;;8316321;28;20064;-86
2022/03/28 18:43:01;;;;;;;31.83;13.70;;;;;;;;;;8307947;28;20046;-85
2022/03/28 18:47:07;;;;;;;33.67;13.50;;;;;;;;;;8318733;28;20127;-85
2022/03/28 18:51:11;;;;;;;74.63;27.05;;;;;;;;;;8307069;28;20046;-85
2022/03/28 18:55:15;;;;;;;101.40;34.30;;;;;;;;;;8319549;28;20046;-84
2022/03/28 18:59:19;;;;;;;30.38;13.75;;;;;;;;;;8311661;28;20104;-85
2022/03/28 19:03:25;;;;;;;93.20;32.88;;;;;;;;;;8309499;28;20543;-85
2022/03/28 19:07:29;;;;;;;48.05;18.13;;;;;;;;;;8313148;28;20046;-85
2022/03/28 19:11:32;;;;;;;41.92;19.02;;;;;;;;;;8316082;28;20050;-84
2022/03/28 19:15:35;;;;;;;35.80;16.13;;;;;;;;;;8313509;28;20052;-85
2022/03/28 19:19:41;;;;;;;34.75;18.95;;;;;;;;;;8312773;28;20045;-85
2022/03/28 19:23:46;;;;;;;33.75;16.90;;;;;;;;;;8319851;28;20049;-85
2022/03/28 19:27:51;;;;;;;22.48;12.90;;;;;;;;;;8314171;28;20050;-85
2022/03/28 19:31:56;;;;;;;19.80;8.88;;;;;;;;;;8306521;28;20050;-84
2022/03/28 19:36:02;;;;;;;34.03;16.42;;;;;;;;;;8315904;28;20053;-85
2022/03/28 19:40:09;;;;;;;36.70;17.67;;;;;;;;;;8316586;28;20445;-85
2022/03/28 19:44:23;;;;;;;25.48;14.32;;;;;;;;;;8316933;28;20477;-85
2022/03/28 19:48:26;;;;;;;35.15;16.40;;;;;;;;;;8314145;28;20042;-84
2022/03/28 19:52:31;;;;;;;40.40;19.83;;;;;;;;;;8312523;28;20045;-83
2022/03/28 19:56:38;;;;;;;42.28;21.60;;;;;;;;;;8314128;28;20538;-85
2022/03/28 20:00:43;;;;;;;24.63;12.40;;;;;;;;;;8311379;28;20061;-84
2022/03/28 20:04:52;;;;;;;19.08;10.68;;;;;;;;;;8311862;28;20045;-85
2022/03/28 20:08:57;;;;;;;17.98;9.00;;;;;;;;;;8310553;28;20189;-85
2022/03/28 20:13:02;;;;;;;19.60;10.13;;;;;;;;;;8309466;28;20496;-85
2022/03/28 20:17:07;;;;;;;14.45;7.43;;;;;;;;;;8305082;28;20482;-84
2022/03/28 20:21:14;;;;;;;16.02;8.02;;;;;;;;;;8320085;28;20470;-85
2022/03/28 20:25:25;;;;;;;19.85;9.38;;;;;;;;;;8305994;28;20404;-85
2022/03/28 20:29:29;;;;;;;14.35;6.75;;;;;;;;;;8318440;28;20046;-85
2022/03/28 20:33:32;;;;;;;21.10;8.68;;;;;;;;;;8318434;28;20042;-85
2022/03/28 20:37:38;;;;;;;12.77;5.57;;;;;;;;;;8316249;28;20420;-84
2022/03/28 20:41:45;;;;;;;10.13;4.75;;;;;;;;;;8309979;28;20096;-85
2022/03/28 20:45:56;;;;;;;13.32;4.30;;;;;;;;;;8310688;28;20076;-83
2022/03/28 20:50:02;;;;;;;11.40;5.68;;;;;;;;;;8313496;28;20551;-85
2022/03/28 20:54:06;;;;;;;14.13;6.72;;;;;;;;;;8314248;28;20124;-85
2022/03/28 20:58:12;;;;;;;19.38;7.85;;;;;;;;;;8321557;28;20053;-85
2022/03/28 21:02:21;;;;;;;24.50;10.38;;;;;;;;;;8322320;28;20060;-83
2022/03/28 21:06:26;;;;;;;22.30;8.70;;;;;;;;;;8314868;28;20046;-85
2022/03/28 21:10:32;;;;;;;79.63;34.53;;;;;;;;;;8321544;28;20049;-84
2022/03/28 21:14:38;;;;;;;34.83;16.30;;;;;;;;;;8312706;28;20421;-85
2022/03/28 21:18:43;;;;;;;33.72;15.70;;;;;;;;;;8316997;28;20585;-84
2022/03/28 21:22:46;;;;;;;17.75;6.45;;;;;;;;;;8332077;28;20129;-85
2022/03/28 21:26:49;;;;;;;11.95;5.38;;;;;;;;;;8334078;28;20065;-85
2022/03/28 21:30:54;;;;;;;14.82;6.93;;;;;;;;;;8331521;28;20400;-85
2022/03/28 21:34:58;;;;;;;15.93;8.32;;;;;;;;;;8331834;28;20075;-86
2022/03/28 21:39:01;;;;;;;12.85;5.57;;;;;;;;;;8330998;28;20482;-86
2022/03/28 21:43:04;;;;;;;10.70;5.70;;;;;;;;;;8322926;28;20053;-85
2022/03/28 21:47:09;;;;;;;46.47;14.48;;;;;;;;;;8335315;28;20042;-85
2022/03/28 21:51:11;;;;;;;39.47;14.88;;;;;;;;;;8335362;28;20128;-85
2022/03/28 21:55:15;;;;;;;51.80;19.45;;;;;;;;;;8332452;28;20045;-84
2022/03/28 21:59:18;;;;;;;18.08;7.80;;;;;;;;;;8325874;28;20045;-85
2022/03/28 22:03:23;;;;;;;18.38;7.30;;;;;;;;;;8330019;28;20045;-84
2022/03/28 22:07:26;;;;;;;11.30;5.22;;;;;;;;;;8313803;28;20409;-83
2022/03/28 22:11:29;;;;;;;9.55;5.07;;;;;;;;;;8332640;28;20057;-85
2022/03/28 22:15:31;;;;;;;10.70;5.20;;;;;;;;;;8326368;28;20053;-85
2022/03/28 22:19:35;;;;;;;10.50;5.60;;;;;;;;;;8332449;28;20077;-84
2022/03/28 22:23:38;;;;;;;10.52;5.68;;;;;;;;;;8332863;28;20042;-83
2022/03/28 22:27:41;;;;;;;10.55;5.32;;;;;;;;;;8332344;28;20052;-85
2022/03/28 22:31:43;;;;;;;13.75;5.43;;;;;;;;;;8332150;28;20051;-85
2022/03/28 22:35:47;;;;;;;13.73;6.35;;;;;;;;;;8332013;28;20049;-84
2022/03/28 22:39:50;;;;;;;12.48;6.20;;;;;;;;;;8331824;28;20049;-86
2022/03/28 22:43:53;;;;;;;16.63;8.75;;;;;;;;;;8331800;28;20053;-85
2022/03/28 22:47:56;;;;;;;14.00;7.05;;;;;;;;;;8331548;28;20386;-84
2022/03/28 22:52:00;;;;;;;12.55;5.60;;;;;;;;;;8331519;28;20440;-85
2022/03/28 22:56:02;;;;;;;15.30;8.15;;;;;;;;;;8331487;28;20580;-86
2022/03/28 23:00:07;;;;;;;12.00;7.65;;;;;;;;;;8330841;28;20079;-85
2022/03/28 23:04:09;;;;;;;16.02;5.68;;;;;;;;;;8331600;28;20530;-85
2022/03/28 23:08:15;;;;;;;14.10;6.82;;;;;;;;;;8331142;28;20511;-85
2022/03/28 23:12:17;;;;;;;16.67;7.18;;;;;;;;;;8325333;28;20072;-85
2022/03/28 23:16:20;;;;;;;14.60;6.95;;;;;;;;;;8324695;28;20053;-85
2022/03/28 23:20:25;;;;;;;17.45;8.73;;;;;;;;;;8330237;28;20116;-84
2022/03/28 23:24:29;;;;;;;19.08;8.68;;;;;;;;;;8330723;28;20485;-85
2022/03/28 23:28:32;;;;;;;17.58;8.82;;;;;;;;;;8330972;28;20049;-84
2022/03/28 23:32:34;;;;;;;15.25;8.25;;;;;;;;;;8330591;28;20037;-85
2022/03/28 23:36:37;;;;;;;12.75;7.05;;;;;;;;;;8323027;28;20052;-85
2022/03/28 23:40:41;;;;;;;16.00;7.47;;;;;;;;;;8330273;28;20056;-85
2022/03/28 23:44:43;;;;;;;19.38;9.55;;;;;;;;;;8330246;28;20048;-85
2022/03/28 23:48:46;;;;;;;13.60;7.55;;;;;;;;;;8330312;28;20042;-84
2022/03/28 23:52:51;;;;;;;27.77;12.32;;;;;;;;;;8330178;28;20046;-84
2022/03/28 23:56:58;;;;;;;14.10;7.05;;;;;;;;;;8330555;28;20497;-86
